sensor_id;sensor_type;location;lat;lon;timestamp;P1;durP1;ratioP1;P2;durP2;ratioP2
50549;SDS011;36505;52.512;13.460;2024-03-07T00:02:08;109.88;;;33.20;;
50549;SDS011;36505;52.512;13.460;2024-03-07T00:04:37;96.82;;;33.53;;
50549;SDS011;36505;52.512;13.460;2024-03-07T00:07:03;113.88;;;32.40;;
50549;SDS011;36505;52.512;13.460;2024-03-07T00:09:31;104.82;;;33.95;;
50549;SDS011;36505;52.512;13.460;2024-03-07T00:11:57;107.88;;;32.47;;
50549;SDS011;36505;52.512;13.460;2024-03-07T00:14:23;104.63;;;32.38;;
50549;SDS011;36505;52.512;13.460;2024-03-07T00:16:52;109.30;;;35.35;;
50549;SDS011;36505;52.512;13.460;2024-03-07T00:19:18;95.63;;;31.65;;
50549;SDS011;36505;52.512;13.460;2024-03-07T00:21:43;103.82;;;31.77;;
50549;SDS011;36505;52.512;13.460;2024-03-07T00:24:09;108.32;;;33.00;;
50549;SDS011;36505;52.512;13.460;2024-03-07T00:26:34;95.45;;;33.58;;
50549;SDS011;36505;52.512;13.460;2024-03-07T00:28:59;90.22;;;30.90;;
50549;SDS011;36505;52.512;13.460;2024-03-07T00:31:25;101.68;;;33.33;;
50549;SDS011;36505;52.512;13.460;2024-03-07T00:33:51;97.90;;;33.20;;
50549;SDS011;36505;52.512;13.460;2024-03-07T00:36:17;97.80;;;31.70;;
50549;SDS011;36505;52.512;13.460;2024-03-07T00:38:43;94.15;;;32.70;;
50549;SDS011;36505;52.512;13.460;2024-03-07T00:41:08;104.38;;;31.15;;
50549;SDS011;36505;52.512;13.460;2024-03-07T00:43:35;103.55;;;34.13;;
50549;SDS011;36505;52.512;13.460;2024-03-07T00:46:01;94.03;;;31.58;;
50549;SDS011;36505;52.512;13.460;2024-03-07T00:48:26;100.68;;;31.80;;
50549;SDS011;36505;52.512;13.460;2024-03-07T00:50:51;108.03;;;31.60;;
50549;SDS011;36505;52.512;13.460;2024-03-07T00:53:17;108.55;;;32.83;;
50549;SDS011;36505;52.512;13.460;2024-03-07T00:55:42;93.20;;;31.88;;
50549;SDS011;36505;52.512;13.460;2024-03-07T00:58:09;101.40;;;32.95;;
50549;SDS011;36505;52.512;13.460;2024-03-07T01:00:34;101.53;;;30.80;;
50549;SDS011;36505;52.512;13.460;2024-03-07T01:02:59;114.40;;;34.28;;
50549;SDS011;36505;52.512;13.460;2024-03-07T01:05:26;101.97;;;31.52;;
50549;SDS011;36505;52.512;13.460;2024-03-07T01:07:51;94.32;;;30.65;;
50549;SDS011;36505;52.512;13.460;2024-03-07T01:10:18;102.22;;;32.58;;
50549;SDS011;36505;52.512;13.460;2024-03-07T01:12:43;96.60;;;32.25;;
50549;SDS011;36505;52.512;13.460;2024-03-07T01:15:09;101.70;;;33.15;;
50549;SDS011;36505;52.512;13.460;2024-03-07T01:17:36;99.93;;;31.17;;
50549;SDS011;36505;52.512;13.460;2024-03-07T01:20:02;97.45;;;30.20;;
50549;SDS011;36505;52.512;13.460;2024-03-07T01:22:27;96.45;;;31.38;;
50549;SDS011;36505;52.512;13.460;2024-03-07T01:24:53;99.00;;;30.90;;
50549;SDS011;36505;52.512;13.460;2024-03-07T01:27:18;107.68;;;31.75;;
50549;SDS011;36505;52.512;13.460;2024-03-07T01:29:44;105.03;;;32.90;;
50549;SDS011;36505;52.512;13.460;2024-03-07T01:32:10;101.95;;;30.63;;
50549;SDS011;36505;52.512;13.460;2024-03-07T01:34:36;100.57;;;31.45;;
50549;SDS011;36505;52.512;13.460;2024-03-07T01:37:01;111.82;;;31.05;;
50549;SDS011;36505;52.512;13.460;2024-03-07T01:39:27;107.72;;;32.47;;
50549;SDS011;36505;52.512;13.460;2024-03-07T01:41:52;112.20;;;33.22;;
50549;SDS011;36505;52.512;13.460;2024-03-07T01:44:18;100.28;;;29.88;;
50549;SDS011;36505;52.512;13.460;2024-03-07T01:46:44;102.07;;;30.85;;
50549;SDS011;36505;52.512;13.460;2024-03-07T01:49:09;109.43;;;32.85;;
50549;SDS011;36505;52.512;13.460;2024-03-07T01:51:36;96.88;;;29.45;;
50549;SDS011;36505;52.512;13.460;2024-03-07T01:54:02;85.18;;;30.25;;
50549;SDS011;36505;52.512;13.460;2024-03-07T01:56:28;82.65;;;30.05;;
50549;SDS011;36505;52.512;13.460;2024-03-07T01:58:54;90.68;;;27.98;;
50549;SDS011;36505;52.512;13.460;2024-03-07T02:01:21;100.00;;;31.30;;
50549;SDS011;36505;52.512;13.460;2024-03-07T02:03:47;90.20;;;32.45;;
50549;SDS011;36505;52.512;13.460;2024-03-07T02:06:13;102.50;;;34.25;;
50549;SDS011;36505;52.512;13.460;2024-03-07T02:08:39;84.57;;;30.23;;
50549;SDS011;36505;52.512;13.460;2024-03-07T02:11:05;85.80;;;29.02;;
50549;SDS011;36505;52.512;13.460;2024-03-07T02:13:30;84.80;;;29.52;;
50549;SDS011;36505;52.512;13.460;2024-03-07T02:15:56;83.18;;;29.50;;
50549;SDS011;36505;52.512;13.460;2024-03-07T02:18:23;87.78;;;30.38;;
50549;SDS011;36505;52.512;13.460;2024-03-07T02:20:49;79.00;;;29.73;;
50549;SDS011;36505;52.512;13.460;2024-03-07T02:23:14;98.68;;;31.17;;
50549;SDS011;36505;52.512;13.460;2024-03-07T02:25:41;85.68;;;31.52;;
50549;SDS011;36505;52.512;13.460;2024-03-07T02:28:06;85.68;;;30.75;;
50549;SDS011;36505;52.512;13.460;2024-03-07T02:30:32;87.85;;;28.88;;
50549;SDS011;36505;52.512;13.460;2024-03-07T02:32:58;88.07;;;30.73;;
50549;SDS011;36505;52.512;13.460;2024-03-07T02:35:31;88.82;;;30.17;;
50549;SDS011;36505;52.512;13.460;2024-03-07T02:38:00;84.97;;;30.02;;
50549;SDS011;36505;52.512;13.460;2024-03-07T02:40:29;88.22;;;31.40;;
50549;SDS011;36505;52.512;13.460;2024-03-07T02:42:55;82.15;;;28.52;;
50549;SDS011;36505;52.512;13.460;2024-03-07T02:45:20;92.80;;;31.58;;
50549;SDS011;36505;52.512;13.460;2024-03-07T02:47:46;88.93;;;30.90;;
50549;SDS011;36505;52.512;13.460;2024-03-07T02:50:11;99.13;;;32.97;;
50549;SDS011;36505;52.512;13.460;2024-03-07T02:52:37;92.35;;;32.45;;
50549;SDS011;36505;52.512;13.460;2024-03-07T02:55:04;99.30;;;33.47;;
50549;SDS011;36505;52.512;13.460;2024-03-07T02:57:30;102.72;;;31.15;;
50549;SDS011;36505;52.512;13.460;2024-03-07T02:59:56;93.28;;;31.92;;
50549;SDS011;36505;52.512;13.460;2024-03-07T03:02:21;83.78;;;30.77;;
50549;SDS011;36505;52.512;13.460;2024-03-07T03:04:48;93.80;;;34.78;;
50549;SDS011;36505;52.512;13.460;2024-03-07T03:07:13;87.85;;;30.30;;
50549;SDS011;36505;52.512;13.460;2024-03-07T03:09:39;86.60;;;30.90;;
50549;SDS011;36505;52.512;13.460;2024-03-07T03:12:11;91.25;;;32.30;;
50549;SDS011;36505;52.512;13.460;2024-03-07T03:14:37;89.38;;;32.05;;
50549;SDS011;36505;52.512;13.460;2024-03-07T03:17:03;90.25;;;29.00;;
50549;SDS011;36505;52.512;13.460;2024-03-07T03:19:29;78.10;;;30.48;;
50549;SDS011;36505;52.512;13.460;2024-03-07T03:21:54;80.93;;;30.17;;
50549;SDS011;36505;52.512;13.460;2024-03-07T03:24:21;88.05;;;31.70;;
50549;SDS011;36505;52.512;13.460;2024-03-07T03:26:47;80.70;;;29.55;;
50549;SDS011;36505;52.512;13.460;2024-03-07T03:29:12;80.55;;;32.65;;
50549;SDS011;36505;52.512;13.460;2024-03-07T03:31:39;79.07;;;29.02;;
50549;SDS011;36505;52.512;13.460;2024-03-07T03:34:05;89.80;;;31.75;;
50549;SDS011;36505;52.512;13.460;2024-03-07T03:36:30;77.32;;;28.90;;
50549;SDS011;36505;52.512;13.460;2024-03-07T03:38:56;89.45;;;31.38;;
50549;SDS011;36505;52.512;13.460;2024-03-07T03:41:21;82.97;;;29.55;;
50549;SDS011;36505;52.512;13.460;2024-03-07T03:43:47;74.30;;;28.35;;
50549;SDS011;36505;52.512;13.460;2024-03-07T03:46:13;71.70;;;29.63;;
50549;SDS011;36505;52.512;13.460;2024-03-07T03:48:39;68.00;;;27.77;;
50549;SDS011;36505;52.512;13.460;2024-03-07T03:51:06;77.28;;;28.38;;
50549;SDS011;36505;52.512;13.460;2024-03-07T03:53:35;67.68;;;26.25;;
50549;SDS011;36505;52.512;13.460;2024-03-07T03:56:01;68.00;;;27.95;;
50549;SDS011;36505;52.512;13.460;2024-03-07T03:58:29;73.97;;;27.58;;
50549;SDS011;36505;52.512;13.460;2024-03-07T04:00:55;79.32;;;27.60;;
50549;SDS011;36505;52.512;13.460;2024-03-07T04:03:21;63.70;;;26.50;;
50549;SDS011;36505;52.512;13.460;2024-03-07T04:05:46;76.18;;;26.98;;
50549;SDS011;36505;52.512;13.460;2024-03-07T04:08:12;63.70;;;26.95;;
50549;SDS011;36505;52.512;13.460;2024-03-07T04:10:37;63.58;;;26.17;;
50549;SDS011;36505;52.512;13.460;2024-03-07T04:13:04;62.50;;;26.13;;
50549;SDS011;36505;52.512;13.460;2024-03-07T04:15:29;63.58;;;25.95;;
50549;SDS011;36505;52.512;13.460;2024-03-07T04:17:57;62.22;;;24.73;;
50549;SDS011;36505;52.512;13.460;2024-03-07T04:20:22;59.70;;;25.95;;
50549;SDS011;36505;52.512;13.460;2024-03-07T04:22:49;57.85;;;25.25;;
50549;SDS011;36505;52.512;13.460;2024-03-07T04:25:15;57.35;;;25.13;;
50549;SDS011;36505;52.512;13.460;2024-03-07T04:27:41;65.30;;;25.92;;
50549;SDS011;36505;52.512;13.460;2024-03-07T04:30:07;68.35;;;25.83;;
50549;SDS011;36505;52.512;13.460;2024-03-07T04:32:35;55.97;;;25.13;;
50549;SDS011;36505;52.512;13.460;2024-03-07T04:35:02;53.10;;;22.98;;
50549;SDS011;36505;52.512;13.460;2024-03-07T04:37:29;50.95;;;22.42;;
50549;SDS011;36505;52.512;13.460;2024-03-07T04:39:55;63.58;;;24.67;;
50549;SDS011;36505;52.512;13.460;2024-03-07T04:42:20;58.60;;;24.30;;
50549;SDS011;36505;52.512;13.460;2024-03-07T04:44:46;49.55;;;23.60;;
50549;SDS011;36505;52.512;13.460;2024-03-07T04:47:11;57.28;;;25.70;;
50549;SDS011;36505;52.512;13.460;2024-03-07T04:49:37;57.33;;;24.95;;
50549;SDS011;36505;52.512;13.460;2024-03-07T04:52:02;55.85;;;24.13;;
50549;SDS011;36505;52.512;13.460;2024-03-07T04:54:28;57.92;;;24.23;;
50549;SDS011;36505;52.512;13.460;2024-03-07T04:56:55;56.20;;;23.13;;
50549;SDS011;36505;52.512;13.460;2024-03-07T04:59:21;50.88;;;24.00;;
50549;SDS011;36505;52.512;13.460;2024-03-07T05:01:47;55.58;;;25.45;;
50549;SDS011;36505;52.512;13.460;2024-03-07T05:04:15;58.55;;;25.85;;
50549;SDS011;36505;52.512;13.460;2024-03-07T05:06:41;55.20;;;24.50;;
50549;SDS011;36505;52.512;13.460;2024-03-07T05:09:09;55.75;;;24.08;;
50549;SDS011;36505;52.512;13.460;2024-03-07T05:11:46;53.28;;;22.67;;
50549;SDS011;36505;52.512;13.460;2024-03-07T05:14:11;55.83;;;24.42;;
50549;SDS011;36505;52.512;13.460;2024-03-07T05:16:37;56.85;;;23.88;;
50549;SDS011;36505;52.512;13.460;2024-03-07T05:19:08;49.63;;;22.98;;
50549;SDS011;36505;52.512;13.460;2024-03-07T05:21:33;50.92;;;24.13;;
50549;SDS011;36505;52.512;13.460;2024-03-07T05:24:02;53.28;;;24.35;;
50549;SDS011;36505;52.512;13.460;2024-03-07T05:26:34;56.03;;;23.67;;
50549;SDS011;36505;52.512;13.460;2024-03-07T05:29:04;57.47;;;25.27;;
50549;SDS011;36505;52.512;13.460;2024-03-07T05:31:32;53.58;;;23.38;;
50549;SDS011;36505;52.512;13.460;2024-03-07T05:34:01;56.25;;;23.42;;
50549;SDS011;36505;52.512;13.460;2024-03-07T05:36:34;50.88;;;23.35;;
50549;SDS011;36505;52.512;13.460;2024-03-07T05:39:00;53.08;;;23.30;;
50549;SDS011;36505;52.512;13.460;2024-03-07T05:41:27;60.50;;;26.77;;
50549;SDS011;36505;52.512;13.460;2024-03-07T05:43:54;52.10;;;22.80;;
50549;SDS011;36505;52.512;13.460;2024-03-07T05:46:20;52.15;;;22.75;;
50549;SDS011;36505;52.512;13.460;2024-03-07T05:48:46;54.80;;;22.50;;
50549;SDS011;36505;52.512;13.460;2024-03-07T05:51:15;56.45;;;24.70;;
50549;SDS011;36505;52.512;13.460;2024-03-07T05:53:40;57.08;;;24.75;;
50549;SDS011;36505;52.512;13.460;2024-03-07T05:56:07;60.95;;;23.05;;
50549;SDS011;36505;52.512;13.460;2024-03-07T05:58:32;53.30;;;23.02;;
50549;SDS011;36505;52.512;13.460;2024-03-07T06:00:58;45.88;;;22.05;;
50549;SDS011;36505;52.512;13.460;2024-03-07T06:03:23;47.67;;;21.95;;
50549;SDS011;36505;52.512;13.460;2024-03-07T06:05:50;49.95;;;21.67;;
50549;SDS011;36505;52.512;13.460;2024-03-07T06:08:16;49.58;;;22.35;;
50549;SDS011;36505;52.512;13.460;2024-03-07T06:10:43;44.90;;;22.42;;
50549;SDS011;36505;52.512;13.460;2024-03-07T06:13:14;51.25;;;22.33;;
50549;SDS011;36505;52.512;13.460;2024-03-07T06:15:42;46.08;;;21.27;;
50549;SDS011;36505;52.512;13.460;2024-03-07T06:18:08;53.15;;;23.25;;
50549;SDS011;36505;52.512;13.460;2024-03-07T06:20:35;52.15;;;21.67;;
50549;SDS011;36505;52.512;13.460;2024-03-07T06:23:01;48.25;;;20.85;;
50549;SDS011;36505;52.512;13.460;2024-03-07T06:25:33;43.33;;;20.77;;
50549;SDS011;36505;52.512;13.460;2024-03-07T06:28:03;45.30;;;21.08;;
50549;SDS011;36505;52.512;13.460;2024-03-07T06:30:39;39.97;;;20.23;;
50549;SDS011;36505;52.512;13.460;2024-03-07T06:33:21;43.22;;;20.13;;
50549;SDS011;36505;52.512;13.460;2024-03-07T06:35:47;45.42;;;21.23;;
50549;SDS011;36505;52.512;13.460;2024-03-07T06:38:13;51.13;;;23.13;;
50549;SDS011;36505;52.512;13.460;2024-03-07T06:40:39;47.10;;;23.10;;
50549;SDS011;36505;52.512;13.460;2024-03-07T06:43:05;52.33;;;22.85;;
50549;SDS011;36505;52.512;13.460;2024-03-07T06:45:34;50.42;;;25.42;;
50549;SDS011;36505;52.512;13.460;2024-03-07T06:48:01;50.88;;;23.80;;
50549;SDS011;36505;52.512;13.460;2024-03-07T06:50:32;52.63;;;24.48;;
50549;SDS011;36505;52.512;13.460;2024-03-07T06:52:57;51.10;;;22.92;;
50549;SDS011;36505;52.512;13.460;2024-03-07T06:55:23;45.13;;;22.02;;
50549;SDS011;36505;52.512;13.460;2024-03-07T06:57:48;45.30;;;21.83;;
50549;SDS011;36505;52.512;13.460;2024-03-07T07:00:18;49.60;;;23.38;;
50549;SDS011;36505;52.512;13.460;2024-03-07T07:02:47;49.30;;;21.92;;
50549;SDS011;36505;52.512;13.460;2024-03-07T07:05:13;46.72;;;21.88;;
50549;SDS011;36505;52.512;13.460;2024-03-07T07:07:43;45.78;;;22.65;;
50549;SDS011;36505;52.512;13.460;2024-03-07T07:10:09;45.63;;;22.95;;
50549;SDS011;36505;52.512;13.460;2024-03-07T07:12:41;46.47;;;21.38;;
50549;SDS011;36505;52.512;13.460;2024-03-07T07:15:08;41.55;;;21.17;;
50549;SDS011;36505;52.512;13.460;2024-03-07T07:17:35;36.20;;;19.20;;
50549;SDS011;36505;52.512;13.460;2024-03-07T07:20:00;39.38;;;19.75;;
50549;SDS011;36505;52.512;13.460;2024-03-07T07:22:26;38.88;;;18.95;;
50549;SDS011;36505;52.512;13.460;2024-03-07T07:24:51;29.98;;;17.95;;
50549;SDS011;36505;52.512;13.460;2024-03-07T07:27:17;36.83;;;19.40;;
50549;SDS011;36505;52.512;13.460;2024-03-07T07:29:43;39.33;;;19.13;;
50549;SDS011;36505;52.512;13.460;2024-03-07T07:32:10;31.65;;;17.10;;
50549;SDS011;36505;52.512;13.460;2024-03-07T07:34:37;29.10;;;17.25;;
50549;SDS011;36505;52.512;13.460;2024-03-07T07:37:04;31.55;;;17.80;;
50549;SDS011;36505;52.512;13.460;2024-03-07T07:39:29;32.20;;;16.63;;
50549;SDS011;36505;52.512;13.460;2024-03-07T07:41:55;31.80;;;16.45;;
50549;SDS011;36505;52.512;13.460;2024-03-07T07:44:21;28.88;;;16.35;;
50549;SDS011;36505;52.512;13.460;2024-03-07T07:46:47;33.58;;;17.10;;
50549;SDS011;36505;52.512;13.460;2024-03-07T07:49:14;29.17;;;14.57;;
50549;SDS011;36505;52.512;13.460;2024-03-07T07:51:41;29.63;;;15.23;;
50549;SDS011;36505;52.512;13.460;2024-03-07T07:54:07;30.65;;;15.38;;
50549;SDS011;36505;52.512;13.460;2024-03-07T07:56:34;28.05;;;13.52;;
50549;SDS011;36505;52.512;13.460;2024-03-07T07:59:00;27.85;;;14.43;;
50549;SDS011;36505;52.512;13.460;2024-03-07T08:01:26;29.02;;;14.70;;
50549;SDS011;36505;52.512;13.460;2024-03-07T08:03:52;27.42;;;14.13;;
50549;SDS011;36505;52.512;13.460;2024-03-07T08:06:18;24.25;;;12.45;;
50549;SDS011;36505;52.512;13.460;2024-03-07T08:08:43;24.13;;;12.73;;
50549;SDS011;36505;52.512;13.460;2024-03-07T08:11:09;26.92;;;13.40;;
50549;SDS011;36505;52.512;13.460;2024-03-07T08:13:36;26.35;;;13.50;;
50549;SDS011;36505;52.512;13.460;2024-03-07T08:16:01;23.23;;;12.30;;
50549;SDS011;36505;52.512;13.460;2024-03-07T08:18:26;24.52;;;12.45;;
50549;SDS011;36505;52.512;13.460;2024-03-07T08:20:52;26.20;;;13.25;;
50549;SDS011;36505;52.512;13.460;2024-03-07T08:23:17;21.92;;;11.98;;
50549;SDS011;36505;52.512;13.460;2024-03-07T08:25:42;22.67;;;12.52;;
50549;SDS011;36505;52.512;13.460;2024-03-07T08:28:08;23.40;;;12.10;;
50549;SDS011;36505;52.512;13.460;2024-03-07T08:30:34;26.35;;;12.07;;
50549;SDS011;36505;52.512;13.460;2024-03-07T08:33:00;26.42;;;11.38;;
50549;SDS011;36505;52.512;13.460;2024-03-07T08:35:27;21.02;;;11.70;;
50549;SDS011;36505;52.512;13.460;2024-03-07T08:37:54;20.80;;;10.88;;
50549;SDS011;36505;52.512;13.460;2024-03-07T08:40:24;22.95;;;12.23;;
50549;SDS011;36505;52.512;13.460;2024-03-07T08:42:51;17.30;;;10.80;;
50549;SDS011;36505;52.512;13.460;2024-03-07T08:45:19;18.85;;;10.43;;
50549;SDS011;36505;52.512;13.460;2024-03-07T08:47:48;19.73;;;11.07;;
50549;SDS011;36505;52.512;13.460;2024-03-07T08:50:15;18.40;;;10.98;;
50549;SDS011;36505;52.512;13.460;2024-03-07T08:52:43;19.35;;;10.30;;
50549;SDS011;36505;52.512;13.460;2024-03-07T08:55:09;23.23;;;10.07;;
50549;SDS011;36505;52.512;13.460;2024-03-07T08:57:37;20.23;;;10.82;;
50549;SDS011;36505;52.512;13.460;2024-03-07T09:00:04;15.05;;;9.23;;
50549;SDS011;36505;52.512;13.460;2024-03-07T09:02:35;18.40;;;10.63;;
50549;SDS011;36505;52.512;13.460;2024-03-07T09:05:02;18.05;;;9.63;;
50549;SDS011;36505;52.512;13.460;2024-03-07T09:07:27;17.23;;;8.60;;
50549;SDS011;36505;52.512;13.460;2024-03-07T09:09:54;17.02;;;8.90;;
50549;SDS011;36505;52.512;13.460;2024-03-07T09:12:20;14.82;;;8.68;;
50549;SDS011;36505;52.512;13.460;2024-03-07T09:14:45;17.83;;;8.85;;
50549;SDS011;36505;52.512;13.460;2024-03-07T09:17:11;17.65;;;8.93;;
50549;SDS011;36505;52.512;13.460;2024-03-07T09:19:37;15.18;;;7.95;;
50549;SDS011;36505;52.512;13.460;2024-03-07T09:22:03;17.58;;;8.55;;
50549;SDS011;36505;52.512;13.460;2024-03-07T09:24:29;13.50;;;8.07;;
50549;SDS011;36505;52.512;13.460;2024-03-07T09:26:55;16.10;;;8.35;;
50549;SDS011;36505;52.512;13.460;2024-03-07T09:29:21;14.73;;;7.70;;
50549;SDS011;36505;52.512;13.460;2024-03-07T09:31:50;16.55;;;8.55;;
50549;SDS011;36505;52.512;13.460;2024-03-07T09:34:20;13.13;;;7.20;;
50549;SDS011;36505;52.512;13.460;2024-03-07T09:36:46;14.23;;;7.95;;
50549;SDS011;36505;52.512;13.460;2024-03-07T09:39:15;13.48;;;7.82;;
50549;SDS011;36505;52.512;13.460;2024-03-07T09:41:41;14.48;;;7.20;;
50549;SDS011;36505;52.512;13.460;2024-03-07T09:44:16;12.52;;;7.15;;
50549;SDS011;36505;52.512;13.460;2024-03-07T09:46:48;13.98;;;8.73;;
50549;SDS011;36505;52.512;13.460;2024-03-07T09:49:15;16.67;;;8.60;;
50549;SDS011;36505;52.512;13.460;2024-03-07T09:51:43;13.07;;;6.60;;
50549;SDS011;36505;52.512;13.460;2024-03-07T09:54:09;10.13;;;6.55;;
50549;SDS011;36505;52.512;13.460;2024-03-07T09:56:35;14.38;;;7.22;;
50549;SDS011;36505;52.512;13.460;2024-03-07T09:59:02;9.70;;;7.00;;
50549;SDS011;36505;52.512;13.460;2024-03-07T10:01:31;12.18;;;7.78;;
50549;SDS011;36505;52.512;13.460;2024-03-07T10:04:01;12.15;;;7.18;;
50549;SDS011;36505;52.512;13.460;2024-03-07T10:06:36;12.85;;;7.07;;
50549;SDS011;36505;52.512;13.460;2024-03-07T10:09:03;12.23;;;6.85;;
50549;SDS011;36505;52.512;13.460;2024-03-07T10:11:29;13.15;;;7.50;;
50549;SDS011;36505;52.512;13.460;2024-03-07T10:13:55;12.20;;;7.55;;
50549;SDS011;36505;52.512;13.460;2024-03-07T10:16:20;19.25;;;7.57;;
50549;SDS011;36505;52.512;13.460;2024-03-07T10:18:46;11.77;;;6.88;;
50549;SDS011;36505;52.512;13.460;2024-03-07T10:21:13;14.60;;;6.93;;
50549;SDS011;36505;52.512;13.460;2024-03-07T10:23:39;12.52;;;6.57;;
50549;SDS011;36505;52.512;13.460;2024-03-07T10:26:05;12.18;;;7.20;;
50549;SDS011;36505;52.512;13.460;2024-03-07T10:28:31;12.90;;;6.82;;
50549;SDS011;36505;52.512;13.460;2024-03-07T10:30:58;12.82;;;6.43;;
50549;SDS011;36505;52.512;13.460;2024-03-07T10:33:27;13.55;;;7.82;;
50549;SDS011;36505;52.512;13.460;2024-03-07T10:35:53;16.73;;;7.40;;
50549;SDS011;36505;52.512;13.460;2024-03-07T10:38:18;15.35;;;7.70;;
50549;SDS011;36505;52.512;13.460;2024-03-07T10:40:47;18.08;;;8.68;;
50549;SDS011;36505;52.512;13.460;2024-03-07T10:43:18;17.45;;;8.38;;
50549;SDS011;36505;52.512;13.460;2024-03-07T10:45:46;13.18;;;7.18;;
50549;SDS011;36505;52.512;13.460;2024-03-07T10:48:12;13.45;;;6.85;;
50549;SDS011;36505;52.512;13.460;2024-03-07T10:50:42;12.05;;;6.75;;
50549;SDS011;36505;52.512;13.460;2024-03-07T10:55:34;14.18;;;7.88;;
50549;SDS011;36505;52.512;13.460;2024-03-07T11:00:39;13.45;;;7.40;;
50549;SDS011;36505;52.512;13.460;2024-03-07T11:03:11;15.38;;;7.60;;
50549;SDS011;36505;52.512;13.460;2024-03-07T11:05:36;12.15;;;7.32;;
50549;SDS011;36505;52.512;13.460;2024-03-07T11:08:03;12.38;;;6.68;;
50549;SDS011;36505;52.512;13.460;2024-03-07T11:10:38;15.35;;;7.93;;
50549;SDS011;36505;52.512;13.460;2024-03-07T11:13:05;12.82;;;8.35;;
50549;SDS011;36505;52.512;13.460;2024-03-07T11:15:32;15.35;;;8.20;;
50549;SDS011;36505;52.512;13.460;2024-03-07T11:17:59;14.13;;;7.10;;
50549;SDS011;36505;52.512;13.460;2024-03-07T11:20:34;13.63;;;7.65;;
50549;SDS011;36505;52.512;13.460;2024-03-07T11:23:02;13.23;;;7.75;;
50549;SDS011;36505;52.512;13.460;2024-03-07T11:26:09;11.10;;;6.38;;
50549;SDS011;36505;52.512;13.460;2024-03-07T11:28:36;13.57;;;7.78;;
50549;SDS011;36505;52.512;13.460;2024-03-07T11:31:07;12.90;;;7.07;;
50549;SDS011;36505;52.512;13.460;2024-03-07T11:33:37;14.10;;;7.50;;
50549;SDS011;36505;52.512;13.460;2024-03-07T11:36:15;15.02;;;7.55;;
50549;SDS011;36505;52.512;13.460;2024-03-07T11:39:22;14.20;;;7.63;;
50549;SDS011;36505;52.512;13.460;2024-03-07T11:44:54;16.55;;;7.32;;
50549;SDS011;36505;52.512;13.460;2024-03-07T11:47:23;13.18;;;7.53;;
50549;SDS011;36505;52.512;13.460;2024-03-07T11:49:55;15.88;;;8.00;;
50549;SDS011;36505;52.512;13.460;2024-03-07T11:52:23;13.18;;;8.75;;
50549;SDS011;36505;52.512;13.460;2024-03-07T11:54:49;12.90;;;8.55;;
50549;SDS011;36505;52.512;13.460;2024-03-07T11:59:41;14.43;;;8.20;;
50549;SDS011;36505;52.512;13.460;2024-03-07T12:02:11;15.70;;;8.73;;
50549;SDS011;36505;52.512;13.460;2024-03-07T12:04:39;14.40;;;8.65;;
50549;SDS011;36505;52.512;13.460;2024-03-07T12:07:05;19.77;;;9.02;;
50549;SDS011;36505;52.512;13.460;2024-03-07T12:09:31;16.33;;;8.93;;
50549;SDS011;36505;52.512;13.460;2024-03-07T12:12:01;16.95;;;9.32;;
50549;SDS011;36505;52.512;13.460;2024-03-07T12:14:30;17.08;;;9.38;;
50549;SDS011;36505;52.512;13.460;2024-03-07T12:16:55;20.25;;;11.23;;
50549;SDS011;36505;52.512;13.460;2024-03-07T12:19:22;15.30;;;9.25;;
50549;SDS011;36505;52.512;13.460;2024-03-07T12:21:48;14.68;;;9.50;;
50549;SDS011;36505;52.512;13.460;2024-03-07T12:24:14;17.73;;;9.40;;
50549;SDS011;36505;52.512;13.460;2024-03-07T12:26:40;19.00;;;9.57;;
50549;SDS011;36505;52.512;13.460;2024-03-07T12:29:11;19.63;;;9.80;;
50549;SDS011;36505;52.512;13.460;2024-03-07T12:31:40;19.45;;;9.73;;
50549;SDS011;36505;52.512;13.460;2024-03-07T12:34:07;23.30;;;11.07;;
50549;SDS011;36505;52.512;13.460;2024-03-07T12:36:37;17.48;;;10.88;;
50549;SDS011;36505;52.512;13.460;2024-03-07T12:39:24;19.83;;;10.50;;
50549;SDS011;36505;52.512;13.460;2024-03-07T12:41:51;19.70;;;10.73;;
50549;SDS011;36505;52.512;13.460;2024-03-07T12:44:21;18.20;;;10.00;;
50549;SDS011;36505;52.512;13.460;2024-03-07T12:46:52;19.98;;;10.48;;
50549;SDS011;36505;52.512;13.460;2024-03-07T12:49:24;19.42;;;11.75;;
50549;SDS011;36505;52.512;13.460;2024-03-07T12:51:55;16.63;;;9.32;;
50549;SDS011;36505;52.512;13.460;2024-03-07T12:54:20;21.55;;;11.63;;
50549;SDS011;36505;52.512;13.460;2024-03-07T12:56:47;19.92;;;10.82;;
50549;SDS011;36505;52.512;13.460;2024-03-07T12:59:15;19.08;;;11.52;;
50549;SDS011;36505;52.512;13.460;2024-03-07T13:01:40;23.02;;;12.13;;
50549;SDS011;36505;52.512;13.460;2024-03-07T13:04:13;19.08;;;11.40;;
50549;SDS011;36505;52.512;13.460;2024-03-07T13:06:39;21.58;;;11.73;;
50549;SDS011;36505;52.512;13.460;2024-03-07T13:09:08;27.17;;;12.68;;
50549;SDS011;36505;52.512;13.460;2024-03-07T13:11:39;21.90;;;12.40;;
50549;SDS011;36505;52.512;13.460;2024-03-07T13:14:12;23.98;;;11.95;;
50549;SDS011;36505;52.512;13.460;2024-03-07T13:16:38;20.73;;;12.18;;
50549;SDS011;36505;52.512;13.460;2024-03-07T13:19:04;23.85;;;12.73;;
50549;SDS011;36505;52.512;13.460;2024-03-07T13:21:32;28.17;;;12.38;;
50549;SDS011;36505;52.512;13.460;2024-03-07T13:24:00;21.98;;;11.45;;
50549;SDS011;36505;52.512;13.460;2024-03-07T13:26:26;19.98;;;9.93;;
50549;SDS011;36505;52.512;13.460;2024-03-07T13:28:53;21.90;;;10.80;;
50549;SDS011;36505;52.512;13.460;2024-03-07T13:31:19;22.40;;;9.57;;
50549;SDS011;36505;52.512;13.460;2024-03-07T13:33:45;19.52;;;10.45;;
50549;SDS011;36505;52.512;13.460;2024-03-07T13:36:11;26.67;;;11.50;;
50549;SDS011;36505;52.512;13.460;2024-03-07T13:38:39;19.80;;;10.85;;
50549;SDS011;36505;52.512;13.460;2024-03-07T13:41:05;18.75;;;10.50;;
50549;SDS011;36505;52.512;13.460;2024-03-07T13:43:31;19.75;;;10.73;;
50549;SDS011;36505;52.512;13.460;2024-03-07T13:45:58;20.85;;;10.73;;
50549;SDS011;36505;52.512;13.460;2024-03-07T13:48:24;19.70;;;10.40;;
50549;SDS011;36505;52.512;13.460;2024-03-07T13:50:50;20.27;;;10.45;;
50549;SDS011;36505;52.512;13.460;2024-03-07T13:53:18;20.00;;;10.75;;
50549;SDS011;36505;52.512;13.460;2024-03-07T14:06:57;19.88;;;11.05;;
50549;SDS011;36505;52.512;13.460;2024-03-07T14:21:55;20.02;;;11.18;;
50549;SDS011;36505;52.512;13.460;2024-03-07T14:32:08;23.63;;;11.82;;
50549;SDS011;36505;52.512;13.460;2024-03-07T14:37:33;20.83;;;11.90;;
50549;SDS011;36505;52.512;13.460;2024-03-07T14:40:09;21.75;;;11.48;;
50549;SDS011;36505;52.512;13.460;2024-03-07T14:42:42;25.88;;;12.77;;
50549;SDS011;36505;52.512;13.460;2024-03-07T14:45:11;21.92;;;11.73;;
50549;SDS011;36505;52.512;13.460;2024-03-07T14:47:39;22.77;;;12.02;;
50549;SDS011;36505;52.512;13.460;2024-03-07T14:50:04;24.27;;;12.30;;
50549;SDS011;36505;52.512;13.460;2024-03-07T14:52:35;40.78;;;13.43;;
50549;SDS011;36505;52.512;13.460;2024-03-07T14:55:05;23.10;;;11.93;;
50549;SDS011;36505;52.512;13.460;2024-03-07T14:57:38;23.35;;;10.65;;